Time;durP1;ratioP1;P1;durP2;ratioP2;P2;SDS_P1;SDS_P2;PMS_P1;PMS_P2;Temp;Humidity;BMP_temperature;BMP_pressure;BME280_temperature;BME280_humidity;BME280_pressure;Samples;Min_cycle;Max_cycle;Signal;HPM_P1;HPM_P2
2020/12/27 00:01:11;;;;;;;12.50;11.10;;;;;;;;;;5009690;28;20210;-50
2020/12/27 00:03:36;;;;;;;14.20;11.93;;;;;;;;;;5008289;28;20181;-49
2020/12/27 00:06:01;;;;;;;13.10;10.70;;;;;;;;;;5013580;28;20195;-50
2020/12/27 00:08:26;;;;;;;12.13;10.27;;;;;;;;;;5017446;28;20242;-48
2020/12/27 00:10:51;;;;;;;14.10;10.63;;;;;;;;;;5008754;28;20664;-49
2020/12/27 00:13:16;;;;;;;12.43;9.73;;;;;;;;;;4999951;28;20239;-49
2020/12/27 00:15:42;;;;;;;10.03;9.00;;;;;;;;;;5013320;28;20722;-49
2020/12/27 00:18:07;;;;;;;12.20;9.90;;;;;;;;;;5024062;28;20180;-50
2020/12/27 00:20:32;;;;;;;11.63;9.63;;;;;;;;;;5007582;28;20190;-49
2020/12/27 00:22:58;;;;;;;12.03;9.37;;;;;;;;;;4998089;28;20177;-48
2020/12/27 00:25:23;;;;;;;11.20;8.88;;;;;;;;;;5012192;28;20200;-48
2020/12/27 00:27:48;;;;;;;10.63;9.52;;;;;;;;;;5022170;28;20212;-50
2020/12/27 00:30:13;;;;;;;10.50;9.40;;;;;;;;;;5009931;28;20243;-49
2020/12/27 00:32:38;;;;;;;11.38;10.10;;;;;;;;;;5012982;28;20177;-48
2020/12/27 00:35:03;;;;;;;11.57;9.90;;;;;;;;;;5011277;28;20247;-49
2020/12/27 00:37:31;;;;;;;10.63;9.60;;;;;;;;;;4998888;28;20205;-50
2020/12/27 00:39:57;;;;;;;10.60;9.43;;;;;;;;;;5006381;28;20178;-49
2020/12/27 00:42:22;;;;;;;10.30;9.17;;;;;;;;;;5009089;28;20700;-49
2020/12/27 00:44:47;;;;;;;10.20;9.17;;;;;;;;;;5011729;28;20670;-49
2020/12/27 00:47:12;;;;;;;11.73;9.23;;;;;;;;;;5000896;28;20233;-49
2020/12/27 00:49:37;;;;;;;10.40;8.83;;;;;;;;;;5012961;28;20407;-50
2020/12/27 00:52:03;;;;;;;9.70;8.80;;;;;;;;;;5002259;28;20638;-49
2020/12/27 00:54:28;;;;;;;11.87;9.23;;;;;;;;;;5002628;28;20700;-50
2020/12/27 00:56:53;;;;;;;10.27;8.80;;;;;;;;;;5015764;28;20231;-50
2020/12/27 00:59:18;;;;;;;11.57;8.40;;;;;;;;;;5013124;28;20208;-50
2020/12/27 01:01:44;;;;;;;9.97;8.77;;;;;;;;;;5013479;28;20212;-49
2020/12/27 01:04:09;;;;;;;10.20;9.10;;;;;;;;;;5009009;28;20209;-50
2020/12/27 01:06:35;;;;;;;11.00;7.97;;;;;;;;;;5003614;28;20721;-50
2020/12/27 01:09:00;;;;;;;10.63;7.97;;;;;;;;;;5013454;28;20269;-50
2020/12/27 01:11:25;;;;;;;11.30;7.70;;;;;;;;;;5011926;28;21196;-50
2020/12/27 01:13:50;;;;;;;8.93;7.95;;;;;;;;;;5012646;28;20235;-49
2020/12/27 01:16:19;;;;;;;9.30;8.30;;;;;;;;;;5013378;28;20666;-49
2020/12/27 01:18:45;;;;;;;9.60;8.27;;;;;;;;;;5011286;28;20283;-49
2020/12/27 01:21:10;;;;;;;9.90;8.40;;;;;;;;;;5008980;28;20678;-50
2020/12/27 01:23:35;;;;;;;9.82;8.45;;;;;;;;;;4999878;28;20609;-49
2020/12/27 01:26:00;;;;;;;11.15;8.48;;;;;;;;;;5010025;28;20177;-50
2020/12/27 01:28:25;;;;;;;9.80;8.80;;;;;;;;;;4995639;28;20757;-50
2020/12/27 01:30:51;;;;;;;11.03;8.47;;;;;;;;;;5021204;28;20181;-49
2020/12/27 01:33:16;;;;;;;8.10;7.30;;;;;;;;;;4994396;28;20218;-49
2020/12/27 01:35:45;;;;;;;8.40;7.53;;;;;;;;;;5002787;28;20177;-50
2020/12/27 01:38:10;;;;;;;8.07;7.27;;;;;;;;;;5005042;28;20181;-50
2020/12/27 01:40:35;;;;;;;7.70;7.00;;;;;;;;;;5005264;28;20639;-49
2020/12/27 01:43:00;;;;;;;9.10;8.23;;;;;;;;;;5026811;28;20580;-49
2020/12/27 01:45:26;;;;;;;8.55;7.75;;;;;;;;;;5011415;28;20543;-49
2020/12/27 01:47:51;;;;;;;9.27;7.97;;;;;;;;;;5004230;28;20644;-49
2020/12/27 01:50:18;;;;;;;8.53;7.70;;;;;;;;;;5013327;28;20165;-49
2020/12/27 01:52:43;;;;;;;7.97;7.20;;;;;;;;;;5011563;28;20176;-50
2020/12/27 01:55:09;;;;;;;10.10;7.53;;;;;;;;;;5011223;28;20592;-49
2020/12/27 01:57:57;;;;;;;9.97;7.03;;;;;;;;;;5004844;28;20170;-49
2020/12/27 02:00:22;;;;;;;7.80;7.00;;;;;;;;;;5010999;28;20670;-49
2020/12/27 02:02:48;;;;;;;8.10;7.40;;;;;;;;;;5024886;28;20600;-49
2020/12/27 02:05:13;;;;;;;8.80;7.37;;;;;;;;;;5000354;28;20174;-50
2020/12/27 02:07:38;;;;;;;9.20;7.70;;;;;;;;;;5007417;28;20696;-50
2020/12/27 02:10:04;;;;;;;9.17;7.73;;;;;;;;;;4994421;28;20239;-49
2020/12/27 02:12:29;;;;;;;8.40;7.50;;;;;;;;;;4997213;28;20530;-49
2020/12/27 02:14:54;;;;;;;8.87;7.53;;;;;;;;;;5019491;28;20644;-48
2020/12/27 02:17:19;;;;;;;8.30;7.17;;;;;;;;;;5018472;28;20181;-49
2020/12/27 02:19:44;;;;;;;11.27;7.50;;;;;;;;;;4995046;28;20244;-49
2020/12/27 02:22:10;;;;;;;12.48;8.02;;;;;;;;;;4999034;28;20210;-50
2020/12/27 02:24:35;;;;;;;9.05;7.68;;;;;;;;;;5014493;28;20185;-49
2020/12/27 02:27:00;;;;;;;9.82;7.95;;;;;;;;;;4993300;28;20213;-49
2020/12/27 02:29:29;;;;;;;8.70;7.30;;;;;;;;;;5008437;28;20228;-49
2020/12/27 02:31:55;;;;;;;9.47;8.43;;;;;;;;;;4991791;28;20185;-49
2020/12/27 02:34:20;;;;;;;8.00;7.17;;;;;;;;;;5016787;28;20599;-49
2020/12/27 02:36:45;;;;;;;9.50;7.67;;;;;;;;;;5008084;28;20608;-50
2020/12/27 02:39:11;;;;;;;9.38;8.10;;;;;;;;;;4992087;28;20182;-50
2020/12/27 02:41:37;;;;;;;8.30;7.50;;;;;;;;;;5011506;28;20583;-50
2020/12/27 02:44:02;;;;;;;8.63;7.70;;;;;;;;;;5012381;28;20174;-50
2020/12/27 02:46:27;;;;;;;8.50;7.60;;;;;;;;;;5007736;28;20760;-50
2020/12/27 02:48:53;;;;;;;10.30;6.67;;;;;;;;;;5009433;28;20829;-50
2020/12/27 02:51:19;;;;;;;8.10;7.40;;;;;;;;;;5007202;28;20177;-49
2020/12/27 02:53:48;;;;;;;8.57;7.23;;;;;;;;;;5019425;28;20178;-50
2020/12/27 02:56:13;;;;;;;8.33;7.23;;;;;;;;;;5010983;28;20550;-50
2020/12/27 02:58:38;;;;;;;9.70;7.70;;;;;;;;;;5009042;28;20615;-49
2020/12/27 03:01:03;;;;;;;7.80;6.60;;;;;;;;;;5008540;28;20565;-49
2020/12/27 03:03:28;;;;;;;7.13;6.43;;;;;;;;;;5021189;28;20231;-50
2020/12/27 03:05:54;;;;;;;8.43;6.47;;;;;;;;;;5014663;28;20696;-49
2020/12/27 03:08:19;;;;;;;8.67;5.47;;;;;;;;;;5006107;28;20208;-49
2020/12/27 03:10:44;;;;;;;8.90;5.65;;;;;;;;;;5011537;28;20177;-49
2020/12/27 03:13:09;;;;;;;7.57;6.15;;;;;;;;;;5009216;28;20236;-50
2020/12/27 03:15:35;;;;;;;6.40;5.63;;;;;;;;;;5004396;28;20213;-50
2020/12/27 03:18:00;;;;;;;6.13;5.55;;;;;;;;;;5014360;28;20191;-50
2020/12/27 03:20:25;;;;;;;7.13;6.25;;;;;;;;;;5006592;28;20181;-50
2020/12/27 03:22:50;;;;;;;6.35;5.70;;;;;;;;;;5012152;28;20196;-50
2020/12/27 03:25:15;;;;;;;7.65;5.30;;;;;;;;;;5017622;28;20215;-50
2020/12/27 03:27:40;;;;;;;7.40;6.30;;;;;;;;;;4999986;28;20818;-50
2020/12/27 03:30:06;;;;;;;5.30;4.90;;;;;;;;;;5007079;28;20678;-49
2020/12/27 03:32:31;;;;;;;7.70;5.90;;;;;;;;;;5000427;28;20180;-49
2020/12/27 03:34:56;;;;;;;6.73;4.83;;;;;;;;;;5013942;28;20188;-50
2020/12/27 03:37:21;;;;;;;7.32;5.05;;;;;;;;;;5014742;28;20581;-49
2020/12/27 03:39:46;;;;;;;5.38;4.82;;;;;;;;;;5015285;28;20637;-50
2020/12/27 03:42:11;;;;;;;5.60;5.00;;;;;;;;;;5005645;28;20204;-49
2020/12/27 03:44:36;;;;;;;7.18;5.47;;;;;;;;;;5009006;28;20184;-50
2020/12/27 03:47:02;;;;;;;8.38;5.55;;;;;;;;;;5000938;28;20659;-50
2020/12/27 03:49:27;;;;;;;7.10;5.60;;;;;;;;;;5015009;28;20168;-50
2020/12/27 03:51:52;;;;;;;8.63;6.35;;;;;;;;;;5014674;28;20181;-49
2020/12/27 03:54:17;;;;;;;6.25;5.65;;;;;;;;;;5009035;28;20698;-49
2020/12/27 03:56:42;;;;;;;6.07;5.28;;;;;;;;;;5010178;28;20177;-50
2020/12/27 03:59:07;;;;;;;4.50;4.10;;;;;;;;;;4997301;28;20208;-50
2020/12/27 04:01:33;;;;;;;5.68;4.72;;;;;;;;;;5020120;28;20212;-50
2020/12/27 04:03:58;;;;;;;7.83;4.67;;;;;;;;;;5005161;28;20273;-50
2020/12/27 04:06:23;;;;;;;4.85;4.30;;;;;;;;;;5013318;28;20180;-50
2020/12/27 04:08:48;;;;;;;5.88;4.53;;;;;;;;;;4994433;28;20178;-50
2020/12/27 04:11:13;;;;;;;5.20;4.47;;;;;;;;;;5012948;28;20620;-50
2020/12/27 04:13:38;;;;;;;5.22;4.72;;;;;;;;;;4994614;28;20958;-50
2020/12/27 04:16:04;;;;;;;5.32;4.72;;;;;;;;;;5003784;28;20188;-50
2020/12/27 04:18:29;;;;;;;5.03;4.53;;;;;;;;;;5021724;28;20180;-50
2020/12/27 04:20:54;;;;;;;4.67;4.27;;;;;;;;;;5004142;28;20206;-50
2020/12/27 04:23:19;;;;;;;6.60;5.10;;;;;;;;;;5013192;28;20183;-50
2020/12/27 04:25:44;;;;;;;5.43;4.93;;;;;;;;;;5014142;28;20528;-50
2020/12/27 04:28:09;;;;;;;5.28;4.78;;;;;;;;;;4997502;28;20229;-51
2020/12/27 04:30:35;;;;;;;5.50;5.00;;;;;;;;;;5007221;28;20212;-50
2020/12/27 04:33:00;;;;;;;5.00;4.50;;;;;;;;;;5024899;28;20640;-50
2020/12/27 04:35:25;;;;;;;6.53;5.57;;;;;;;;;;5019985;28;20302;-51
2020/12/27 04:37:50;;;;;;;5.50;4.97;;;;;;;;;;5027788;28;20174;-50
2020/12/27 04:40:15;;;;;;;6.23;4.40;;;;;;;;;;5003137;28;20242;-50
2020/12/27 04:42:42;;;;;;;5.30;4.70;;;;;;;;;;4998406;28;20200;-49
2020/12/27 04:45:07;;;;;;;4.53;4.13;;;;;;;;;;5014356;28;20165;-49
2020/12/27 04:47:34;;;;;;;4.57;4.10;;;;;;;;;;5020565;28;20715;-49
2020/12/27 04:49:59;;;;;;;6.40;4.60;;;;;;;;;;5011222;28;20175;-49
2020/12/27 04:52:30;;;;;;;5.13;4.63;;;;;;;;;;5010466;28;20612;-50
2020/12/27 04:54:55;;;;;;;6.10;4.33;;;;;;;;;;5002303;28;20182;-50
2020/12/27 04:57:20;;;;;;;4.78;4.10;;;;;;;;;;5019008;28;20615;-51
2020/12/27 04:59:46;;;;;;;6.32;5.53;;;;;;;;;;4995823;28;20265;-50
2020/12/27 05:02:12;;;;;;;8.27;5.10;;;;;;;;;;5010842;28;20233;-50
2020/12/27 05:04:37;;;;;;;7.20;4.90;;;;;;;;;;4998908;28;20616;-49
2020/12/27 05:07:03;;;;;;;5.73;4.03;;;;;;;;;;5013934;28;20245;-50
2020/12/27 05:09:28;;;;;;;4.80;4.30;;;;;;;;;;5008070;28;20181;-49
2020/12/27 05:11:54;;;;;;;6.33;4.53;;;;;;;;;;5030004;28;20182;-49
2020/12/27 05:14:26;;;;;;;4.60;3.53;;;;;;;;;;5014270;28;20167;-49
2020/12/27 05:16:52;;;;;;;4.97;4.30;;;;;;;;;;5013461;28;20230;-49
2020/12/27 05:19:18;;;;;;;5.47;4.97;;;;;;;;;;5008237;28;20604;-50
2020/12/27 05:21:43;;;;;;;5.70;4.50;;;;;;;;;;4995908;28;20644;-49
2020/12/27 05:24:08;;;;;;;4.40;4.00;;;;;;;;;;5006678;28;20268;-49
2020/12/27 05:26:34;;;;;;;4.43;3.97;;;;;;;;;;5010386;28;20178;-50
2020/12/27 05:29:00;;;;;;;4.70;4.20;;;;;;;;;;5008501;28;20181;-50
2020/12/27 05:31:33;;;;;;;4.90;4.40;;;;;;;;;;5007875;28;21150;-50
2020/12/27 05:33:58;;;;;;;4.30;3.90;;;;;;;;;;5012095;28;20215;-50
2020/12/27 05:36:24;;;;;;;4.43;4.03;;;;;;;;;;5002120;28;21198;-50
2020/12/27 05:38:49;;;;;;;5.33;4.53;;;;;;;;;;5021212;28;20227;-50
2020/12/27 05:41:14;;;;;;;4.63;4.22;;;;;;;;;;5014849;28;20200;-51
2020/12/27 05:43:39;;;;;;;4.80;4.27;;;;;;;;;;5010573;28;20239;-50
2020/12/27 05:46:07;;;;;;;4.75;4.28;;;;;;;;;;5011374;28;20602;-50
2020/12/27 05:48:32;;;;;;;5.97;3.50;;;;;;;;;;5000271;28;20182;-50
2020/12/27 05:51:00;;;;;;;5.60;4.13;;;;;;;;;;5010439;28;21151;-50
2020/12/27 05:53:30;;;;;;;5.43;4.50;;;;;;;;;;5012126;28;20703;-50
2020/12/27 05:55:58;;;;;;;4.70;4.17;;;;;;;;;;5021017;28;20678;-50
2020/12/27 05:58:23;;;;;;;4.53;3.60;;;;;;;;;;5010551;28;20633;-49
2020/12/27 06:00:58;;;;;;;4.03;3.73;;;;;;;;;;5020919;28;20662;-49
2020/12/27 06:03:27;;;;;;;4.10;3.73;;;;;;;;;;5016681;28;20192;-50
2020/12/27 06:05:58;;;;;;;4.07;3.40;;;;;;;;;;5003628;28;20580;-50
2020/12/27 06:08:29;;;;;;;5.10;4.60;;;;;;;;;;4995908;28;21218;-49
2020/12/27 06:10:55;;;;;;;5.53;3.83;;;;;;;;;;5012033;28;20611;-48
2020/12/27 06:13:23;;;;;;;4.70;4.13;;;;;;;;;;5000223;28;20605;-50
2020/12/27 06:15:53;;;;;;;3.87;3.47;;;;;;;;;;5003349;28;20616;-49
2020/12/27 06:18:24;;;;;;;4.67;4.23;;;;;;;;;;5011076;28;20604;-50
2020/12/27 06:20:57;;;;;;;4.63;3.90;;;;;;;;;;5010963;28;20656;-50
2020/12/27 06:23:25;;;;;;;4.33;3.93;;;;;;;;;;5017166;28;20603;-50
2020/12/27 06:25:52;;;;;;;5.50;4.60;;;;;;;;;;4999694;28;20588;-49
2020/12/27 06:28:18;;;;;;;4.20;3.80;;;;;;;;;;5006105;28;20664;-50
2020/12/27 06:30:43;;;;;;;3.93;3.50;;;;;;;;;;5006197;28;21174;-50
2020/12/27 06:33:19;;;;;;;4.97;4.57;;;;;;;;;;4998409;28;20608;-50
2020/12/27 06:35:45;;;;;;;4.73;3.97;;;;;;;;;;5007366;28;20177;-49
2020/12/27 06:38:14;;;;;;;4.70;4.10;;;;;;;;;;5011602;28;20598;-49
2020/12/27 06:40:39;;;;;;;3.73;3.43;;;;;;;;;;5000071;28;20593;-50
2020/12/27 06:43:21;;;;;;;4.83;4.20;;;;;;;;;;5005788;28;20612;-50
2020/12/27 06:45:47;;;;;;;4.90;4.40;;;;;;;;;;5013019;28;20175;-50
2020/12/27 06:48:29;;;;;;;4.70;4.20;;;;;;;;;;5005106;28;20688;-50
2020/12/27 06:50:54;;;;;;;4.00;3.60;;;;;;;;;;5009316;28;20734;-49
2020/12/27 06:53:39;;;;;;;3.53;3.22;;;;;;;;;;5018302;28;20689;-49
2020/12/27 06:56:04;;;;;;;5.10;3.90;;;;;;;;;;5005011;28;20193;-49
2020/12/27 06:58:30;;;;;;;3.13;2.93;;;;;;;;;;5013864;28;20604;-51
2020/12/27 07:01:08;;;;;;;3.83;3.53;;;;;;;;;;5016313;28;20180;-49
2020/12/27 07:03:33;;;;;;;3.87;3.47;;;;;;;;;;5010400;28;20204;-49
2020/12/27 07:06:14;;;;;;;3.83;3.30;;;;;;;;;;4998620;28;21047;-49
2020/12/27 07:08:40;;;;;;;4.13;3.67;;;;;;;;;;4995953;28;20180;-50
2020/12/27 07:11:06;;;;;;;3.90;3.50;;;;;;;;;;5006859;28;21195;-48
2020/12/27 07:13:39;;;;;;;3.13;2.93;;;;;;;;;;5008112;28;20695;-49
2020/12/27 07:16:09;;;;;;;3.53;3.23;;;;;;;;;;4998436;28;20182;-48
2020/12/27 07:18:35;;;;;;;4.10;3.70;;;;;;;;;;5000447;28;20592;-49
2020/12/27 07:21:02;;;;;;;3.77;3.47;;;;;;;;;;4992561;28;20645;-48
2020/12/27 07:23:30;;;;;;;3.90;3.60;;;;;;;;;;4989372;28;20597;-50
2020/12/27 07:25:57;;;;;;;3.00;2.80;;;;;;;;;;5008925;28;20615;-49
2020/12/27 07:28:23;;;;;;;3.17;2.87;;;;;;;;;;5008037;28;20651;-49
2020/12/27 07:30:54;;;;;;;4.07;3.63;;;;;;;;;;5000373;28;21134;-49
2020/12/27 07:33:19;;;;;;;3.67;3.37;;;;;;;;;;4995916;28;20604;-48
2020/12/27 07:35:44;;;;;;;3.35;3.05;;;;;;;;;;5008887;28;20599;-49
2020/12/27 07:38:09;;;;;;;3.40;3.10;;;;;;;;;;5007584;28;20272;-48
2020/12/27 07:40:35;;;;;;;6.40;4.13;;;;;;;;;;5016185;28;20593;-50
2020/12/27 07:43:01;;;;;;;3.43;3.13;;;;;;;;;;5020947;28;20188;-49
2020/12/27 07:45:26;;;;;;;4.03;3.63;;;;;;;;;;5015471;28;20947;-49
2020/12/27 07:47:51;;;;;;;3.70;3.27;;;;;;;;;;5020113;28;20598;-49
2020/12/27 07:50:17;;;;;;;5.07;3.20;;;;;;;;;;5004232;28;20224;-49
2020/12/27 07:52:47;;;;;;;4.17;3.40;;;;;;;;;;5007268;28;20173;-50
2020/12/27 07:55:34;;;;;;;3.23;3.03;;;;;;;;;;5008507;28;20598;-49
2020/12/27 07:58:00;;;;;;;4.57;4.13;;;;;;;;;;5003214;28;20597;-49
2020/12/27 08:00:27;;;;;;;3.13;2.80;;;;;;;;;;5017209;28;20593;-49
2020/12/27 08:02:53;;;;;;;5.00;3.53;;;;;;;;;;5007859;28;20596;-49
2020/12/27 08:05:18;;;;;;;4.23;3.83;;;;;;;;;;4999001;28;20606;-49
2020/12/27 08:07:44;;;;;;;3.43;3.13;;;;;;;;;;5005606;28;20406;-49
2020/12/27 08:10:27;;;;;;;4.30;3.13;;;;;;;;;;5004315;28;20207;-49
2020/12/27 08:12:59;;;;;;;3.00;2.47;;;;;;;;;;5014875;28;20235;-49
2020/12/27 08:15:26;;;;;;;3.10;2.90;;;;;;;;;;5007779;28;20606;-49
2020/12/27 08:18:01;;;;;;;3.50;2.87;;;;;;;;;;5009904;28;20648;-50
2020/12/27 08:20:27;;;;;;;2.47;2.33;;;;;;;;;;4999963;28;20627;-49
2020/12/27 08:22:56;;;;;;;2.67;2.47;;;;;;;;;;4994935;28;20589;-49
2020/12/27 08:25:21;;;;;;;3.13;2.30;;;;;;;;;;5011830;28;20629;-50
2020/12/27 08:27:51;;;;;;;2.55;2.13;;;;;;;;;;5005880;28;20647;-49
2020/12/27 08:30:17;;;;;;;2.80;2.60;;;;;;;;;;5004164;28;20189;-50
2020/12/27 08:32:42;;;;;;;2.63;2.43;;;;;;;;;;5000295;28;20621;-49
2020/12/27 08:35:07;;;;;;;2.05;1.95;;;;;;;;;;5005200;28;20178;-49
2020/12/27 08:37:34;;;;;;;2.40;2.20;;;;;;;;;;5008821;28;20189;-49
2020/12/27 08:40:02;;;;;;;1.60;1.57;;;;;;;;;;5013778;28;20683;-49
2020/12/27 08:42:36;;;;;;;2.40;2.20;;;;;;;;;;5007599;28;21114;-49
2020/12/27 08:45:04;;;;;;;2.73;2.53;;;;;;;;;;4998645;28;20602;-50
2020/12/27 08:47:49;;;;;;;2.27;2.13;;;;;;;;;;5000876;28;20711;-50
2020/12/27 08:50:16;;;;;;;2.83;2.63;;;;;;;;;;5000532;28;20596;-50
2020/12/27 08:52:45;;;;;;;3.23;2.83;;;;;;;;;;5014083;28;20619;-50
2020/12/27 08:55:11;;;;;;;3.07;2.87;;;;;;;;;;4997427;28;20960;-50
2020/12/27 08:57:37;;;;;;;2.50;2.30;;;;;;;;;;5008992;28;20593;-49
2020/12/27 09:00:06;;;;;;;3.47;3.27;;;;;;;;;;5008195;28;20608;-50
2020/12/27 09:02:32;;;;;;;4.63;3.53;;;;;;;;;;5018178;28;20237;-50
2020/12/27 09:05:04;;;;;;;3.30;3.10;;;;;;;;;;5000475;28;20617;-49
2020/12/27 09:07:30;;;;;;;3.33;3.03;;;;;;;;;;5014174;28;20709;-50
2020/12/27 09:10:04;;;;;;;3.50;3.20;;;;;;;;;;5016019;28;20594;-49
2020/12/27 09:12:30;;;;;;;4.80;3.97;;;;;;;;;;5007615;28;21180;-50
2020/12/27 09:14:55;;;;;;;4.15;3.75;;;;;;;;;;5007893;28;20596;-50
2020/12/27 09:17:21;;;;;;;4.63;4.15;;;;;;;;;;5012272;28;20583;-50
2020/12/27 09:19:46;;;;;;;4.40;4.00;;;;;;;;;;5012329;28;20176;-50
2020/12/27 09:22:12;;;;;;;4.00;3.70;;;;;;;;;;5012230;28;20624;-49
2020/12/27 09:24:37;;;;;;;3.88;3.58;;;;;;;;;;5008487;28;20554;-50
2020/12/27 09:27:06;;;;;;;4.80;4.30;;;;;;;;;;5011754;28;20569;-50
2020/12/27 09:29:31;;;;;;;3.90;3.40;;;;;;;;;;5012263;28;20304;-53
2020/12/27 09:32:06;;;;;;;3.63;3.22;;;;;;;;;;5011815;28;20679;-50
2020/12/27 09:34:31;;;;;;;5.00;4.13;;;;;;;;;;5010238;28;20238;-50
2020/12/27 09:36:56;;;;;;;4.15;3.63;;;;;;;;;;5009773;28;20620;-51
2020/12/27 09:39:28;;;;;;;4.10;3.70;;;;;;;;;;5011899;28;20335;-50
2020/12/27 09:41:53;;;;;;;4.83;3.90;;;;;;;;;;5011758;28;20232;-49
2020/12/27 09:44:28;;;;;;;3.95;3.65;;;;;;;;;;5009737;28;20578;-48
2020/12/27 09:46:58;;;;;;;3.77;3.47;;;;;;;;;;5009907;28;20545;-50
2020/12/27 09:49:23;;;;;;;4.00;3.70;;;;;;;;;;5011664;28;20591;-49
2020/12/27 09:52:01;;;;;;;7.30;4.07;;;;;;;;;;5011434;28;20576;-50
2020/12/27 09:54:26;;;;;;;4.20;3.90;;;;;;;;;;5009749;28;20188;-49
2020/12/27 09:56:51;;;;;;;4.43;4.03;;;;;;;;;;5009761;28;20608;-50
2020/12/27 09:59:17;;;;;;;3.50;3.20;;;;;;;;;;5011487;28;20561;-50
2020/12/27 10:01:42;;;;;;;3.78;3.47;;;;;;;;;;5011177;28;20204;-50
2020/12/27 10:04:07;;;;;;;4.07;3.72;;;;;;;;;;5009346;28;20422;-50
2020/12/27 10:06:32;;;;;;;4.03;3.33;;;;;;;;;;5010390;28;20882;-50
2020/12/27 10:08:57;;;;;;;4.57;4.18;;;;;;;;;;5010545;28;20174;-49
2020/12/27 10:11:22;;;;;;;4.63;3.50;;;;;;;;;;5011284;28;20216;-49
2020/12/27 10:13:48;;;;;;;3.60;3.30;;;;;;;;;;5009541;28;20194;-50
2020/12/27 10:16:13;;;;;;;4.45;4.05;;;;;;;;;;5011161;28;20270;-49
2020/12/27 10:18:38;;;;;;;4.35;3.95;;;;;;;;;;5009391;28;20191;-49
2020/12/27 10:21:06;;;;;;;3.80;3.50;;;;;;;;;;5010982;28;20267;-49
2020/12/27 10:23:31;;;;;;;6.47;3.70;;;;;;;;;;5010873;28;20166;-49
2020/12/27 10:25:56;;;;;;;4.37;3.97;;;;;;;;;;5008925;28;20615;-49
2020/12/27 10:28:21;;;;;;;4.13;3.40;;;;;;;;;;5009004;28;20260;-49
2020/12/27 10:30:46;;;;;;;4.40;3.67;;;;;;;;;;5011044;28;20686;-50
2020/12/27 10:33:12;;;;;;;4.55;4.20;;;;;;;;;;5010911;28;20169;-49
2020/12/27 10:35:41;;;;;;;4.03;3.73;;;;;;;;;;5010346;28;20197;-51
2020/12/27 10:38:06;;;;;;;3.60;3.30;;;;;;;;;;5009649;28;20683;-50
2020/12/27 10:40:31;;;;;;;3.95;3.30;;;;;;;;;;5009958;28;20699;-50
2020/12/27 10:42:56;;;;;;;3.42;3.20;;;;;;;;;;5010827;28;20224;-50
2020/12/27 10:45:21;;;;;;;3.70;3.43;;;;;;;;;;5008760;28;20644;-50
2020/12/27 10:47:47;;;;;;;6.10;3.37;;;;;;;;;;5010456;28;20216;-50
2020/12/27 10:50:12;;;;;;;4.00;3.70;;;;;;;;;;5008885;28;20212;-50
2020/12/27 10:52:37;;;;;;;3.42;3.13;;;;;;;;;;5010448;28;20178;-50
2020/12/27 10:55:02;;;;;;;2.90;2.70;;;;;;;;;;5008669;28;20190;-50
2020/12/27 10:57:27;;;;;;;3.50;3.30;;;;;;;;;;5010436;28;20655;-49
2020/12/27 10:59:52;;;;;;;4.32;3.92;;;;;;;;;;5008195;28;20188;-50
2020/12/27 11:02:17;;;;;;;3.35;3.08;;;;;;;;;;5010252;28;20262;-50
2020/12/27 11:04:43;;;;;;;3.92;3.42;;;;;;;;;;4999013;28;20543;-49
2020/12/27 11:07:08;;;;;;;3.60;3.20;;;;;;;;;;4990610;28;20179;-51
2020/12/27 11:09:33;;;;;;;3.88;3.47;;;;;;;;;;4990901;28;20169;-49
2020/12/27 11:11:58;;;;;;;3.90;3.60;;;;;;;;;;4990532;28;20236;-50
2020/12/27 11:14:23;;;;;;;4.28;3.75;;;;;;;;;;4989490;28;20491;-50
2020/12/27 11:16:48;;;;;;;3.90;3.60;;;;;;;;;;4990221;28;20184;-49
2020/12/27 11:19:13;;;;;;;4.63;4.23;;;;;;;;;;4990501;28;20179;-50
2020/12/27 11:21:45;;;;;;;3.73;3.50;;;;;;;;;;4988356;28;20239;-50
2020/12/27 11:24:10;;;;;;;3.40;3.10;;;;;;;;;;4990067;28;20188;-50
2020/12/27 11:26:35;;;;;;;4.70;3.33;;;;;;;;;;4989458;28;21241;-50
2020/12/27 11:29:01;;;;;;;4.22;3.83;;;;;;;;;;4990032;28;20170;-49
2020/12/27 11:31:26;;;;;;;4.10;3.72;;;;;;;;;;4989898;28;20224;-49
2020/12/27 11:33:51;;;;;;;4.50;4.10;;;;;;;;;;4990108;28;20516;-49
2020/12/27 11:36:16;;;;;;;4.30;3.50;;;;;;;;;;4989018;28;20173;-51
2020/12/27 11:38:45;;;;;;;3.93;3.63;;;;;;;;;;5000909;28;20186;-49
2020/12/27 11:41:13;;;;;;;5.00;4.40;;;;;;;;;;5007727;28;20212;-51
2020/12/27 11:43:39;;;;;;;4.03;3.63;;;;;;;;;;5012343;28;20609;-51
2020/12/27 11:46:04;;;;;;;3.80;3.60;;;;;;;;;;5001735;28;20611;-51
2020/12/27 11:48:29;;;;;;;4.60;4.15;;;;;;;;;;4990066;28;20170;-50
2020/12/27 11:50:54;;;;;;;4.37;3.97;;;;;;;;;;4990145;28;20186;-50
2020/12/27 11:53:19;;;;;;;3.75;3.47;;;;;;;;;;4990042;28;20176;-50
2020/12/27 11:55:45;;;;;;;3.90;3.60;;;;;;;;;;4988122;28;20226;-50
2020/12/27 11:58:10;;;;;;;4.20;3.90;;;;;;;;;;4990994;28;20186;-48
2020/12/27 12:00:35;;;;;;;3.70;3.38;;;;;;;;;;4990011;28;20166;-48
2020/12/27 12:03:00;;;;;;;4.10;3.70;;;;;;;;;;4989965;28;20182;-48
2020/12/27 12:05:25;;;;;;;4.25;3.95;;;;;;;;;;4988086;28;20234;-48
2020/12/27 12:07:51;;;;;;;4.50;4.00;;;;;;;;;;4990698;28;20528;-47
2020/12/27 12:10:16;;;;;;;6.03;4.50;;;;;;;;;;4990025;28;20525;-49
2020/12/27 12:12:41;;;;;;;4.20;3.80;;;;;;;;;;4989715;28;20162;-49
2020/12/27 12:15:06;;;;;;;4.35;4.05;;;;;;;;;;4987857;28;20209;-49
2020/12/27 12:17:32;;;;;;;4.57;3.97;;;;;;;;;;4989106;28;20202;-49
2020/12/27 12:19:57;;;;;;;4.07;3.77;;;;;;;;;;4989675;28;20186;-48
2020/12/27 12:22:22;;;;;;;4.50;4.10;;;;;;;;;;4989962;28;20295;-49
2020/12/27 12:24:47;;;;;;;3.95;3.60;;;;;;;;;;4987700;28;20216;-49
2020/12/27 12:27:12;;;;;;;3.90;3.55;;;;;;;;;;5002326;28;20632;-50
2020/12/27 12:29:37;;;;;;;4.53;4.13;;;;;;;;;;5006742;28;20193;-49
2020/12/27 12:32:03;;;;;;;4.40;4.00;;;;;;;;;;4992719;28;20217;-50
2020/12/27 12:34:28;;;;;;;4.28;3.88;;;;;;;;;;5002467;28;20190;-49
2020/12/27 12:36:53;;;;;;;5.38;4.68;;;;;;;;;;5002916;28;20178;-49
2020/12/27 12:39:18;;;;;;;4.47;4.07;;;;;;;;;;5001940;28;20258;-48
2020/12/27 12:41:43;;;;;;;4.57;4.17;;;;;;;;;;4994398;28;20666;-48
2020/12/27 12:44:08;;;;;;;4.47;4.07;;;;;;;;;;5015603;28;20204;-49
2020/12/27 12:46:33;;;;;;;4.43;3.40;;;;;;;;;;5006597;28;20186;-48
2020/12/27 12:48:59;;;;;;;4.43;4.03;;;;;;;;;;4995087;28;20218;-49
2020/12/27 12:51:24;;;;;;;5.00;4.60;;;;;;;;;;5004122;28;20876;-48
2020/12/27 12:53:50;;;;;;;4.07;3.70;;;;;;;;;;5000591;28;20181;-49
2020/12/27 12:56:15;;;;;;;4.10;3.70;;;;;;;;;;5022612;28;20191;-50
2020/12/27 12:58:40;;;;;;;6.67;4.93;;;;;;;;;;5022096;28;20476;-49
2020/12/27 13:01:06;;;;;;;4.73;4.27;;;;;;;;;;5020362;28;20228;-49
2020/12/27 13:03:31;;;;;;;4.73;4.33;;;;;;;;;;5012055;28;20194;-49
2020/12/27 13:05:56;;;;;;;4.63;4.20;;;;;;;;;;5010156;28;20214;-50
2020/12/27 13:08:21;;;;;;;5.00;4.50;;;;;;;;;;4999602;28;20182;-49
2020/12/27 13:10:47;;;;;;;4.97;4.47;;;;;;;;;;5013356;28;20214;-49
2020/12/27 13:13:12;;;;;;;4.93;4.43;;;;;;;;;;5008468;28;20234;-50
2020/12/27 13:15:37;;;;;;;4.30;3.93;;;;;;;;;;5007634;28;20196;-50
2020/12/27 13:18:02;;;;;;;6.05;4.35;;;;;;;;;;4993237;28;20233;-49
2020/12/27 13:20:27;;;;;;;5.10;4.57;;;;;;;;;;4999409;28;20175;-50
2020/12/27 13:22:52;;;;;;;5.22;4.05;;;;;;;;;;4993786;28;20778;-49
2020/12/27 13:25:17;;;;;;;4.28;3.97;;;;;;;;;;5002859;28;20244;-50
2020/12/27 13:27:43;;;;;;;5.90;4.30;;;;;;;;;;5018181;28;20218;-48
2020/12/27 13:30:09;;;;;;;8.27;5.00;;;;;;;;;;5009995;28;20209;-50
2020/12/27 13:32:34;;;;;;;4.83;4.47;;;;;;;;;;5002722;28;20269;-49
2020/12/27 13:34:59;;;;;;;4.25;3.95;;;;;;;;;;4999217;28;20196;-50
2020/12/27 13:37:24;;;;;;;3.95;3.63;;;;;;;;;;4994470;28;20185;-49
2020/12/27 13:39:50;;;;;;;4.57;4.17;;;;;;;;;;5002040;28;20719;-50
2020/12/27 13:42:15;;;;;;;6.15;4.80;;;;;;;;;;5017631;28;20349;-49
2020/12/27 13:44:40;;;;;;;4.90;4.50;;;;;;;;;;5013913;28;20197;-49
2020/12/27 13:47:05;;;;;;;4.68;4.22;;;;;;;;;;5003948;28;20182;-49
2020/12/27 13:49:30;;;;;;;4.23;3.77;;;;;;;;;;5014556;28;20259;-49
2020/12/27 13:51:56;;;;;;;4.43;3.97;;;;;;;;;;5013995;28;20188;-50
2020/12/27 13:54:21;;;;;;;4.27;3.93;;;;;;;;;;4992444;28;20214;-50
2020/12/27 13:56:46;;;;;;;3.90;3.60;;;;;;;;;;5001027;28;20176;-49
2020/12/27 13:59:11;;;;;;;4.43;4.03;;;;;;;;;;5013843;28;20555;-49
2020/12/27 14:01:36;;;;;;;4.50;4.07;;;;;;;;;;5005268;28;20225;-50
2020/12/27 14:04:03;;;;;;;4.60;4.15;;;;;;;;;;5014953;28;20228;-50
2020/12/27 14:06:28;;;;;;;4.87;4.27;;;;;;;;;;5015609;28;20312;-49
2020/12/27 14:08:54;;;;;;;4.23;3.80;;;;;;;;;;5012124;28;21217;-50
2020/12/27 14:11:19;;;;;;;3.73;3.43;;;;;;;;;;4993449;28;20194;-49
2020/12/27 14:13:44;;;;;;;4.43;4.03;;;;;;;;;;5005914;28;20181;-50
2020/12/27 14:16:13;;;;;;;4.70;4.07;;;;;;;;;;5006732;28;20181;-50
2020/12/27 14:18:38;;;;;;;3.93;3.63;;;;;;;;;;5015541;28;20191;-50
2020/12/27 14:21:03;;;;;;;4.72;4.18;;;;;;;;;;5025654;28;20641;-51
2020/12/27 14:23:28;;;;;;;4.28;3.97;;;;;;;;;;5011543;28;20174;-50
2020/12/27 14:25:53;;;;;;;4.88;4.40;;;;;;;;;;5015169;28;20271;-50
2020/12/27 14:28:19;;;;;;;4.03;3.70;;;;;;;;;;5001465;28;20225;-50
2020/12/27 14:30:44;;;;;;;4.80;4.15;;;;;;;;;;5025432;28;20715;-48
2020/12/27 14:33:09;;;;;;;3.90;3.60;;;;;;;;;;5009320;28;20638;-48
2020/12/27 14:35:34;;;;;;;5.03;4.60;;;;;;;;;;4995392;28;20184;-47